MST,Max TemperatureF,Mean TemperatureF,Min TemperatureF,Max Dew PointF,MeanDew PointF,Min DewpointF,Max Humidity, Mean Humidity, Min Humidity, Max Sea Level PressureIn, Mean Sea Level PressureIn, Min Sea Level PressureIn, Max VisibilityMiles, Mean VisibilityMiles, Min VisibilityMiles, Max Wind SpeedMPH, Mean Wind SpeedMPH, Max Gust SpeedMPH,PrecipitationIn, CloudCover, Events, WindDirDegrees
2013-2-1,50,34,18,21,17,12,88,62,23,30.35,30.28,30.17,10,10,10,13,3,,0.00,0,,315
2013-2-2,51,34,18,24,20,15,88,64,29,30.44,30.34,30.26,10,10,10,9,3,,0.00,0,,272
2013-2-3,43,34,25,31,26,21,92,80,42,30.28,30.13,30.04,10,10,8,14,1,,0.00,5,,342
2013-2-4,50,36,23,27,23,19,100,74,29,30.15,30.09,29.99,10,7,0,10,3,,0.00,2,Fog,321
2013-2-5,54,38,21,24,20,14,88,61,26,30.15,30.03,29.94,10,10,10,7,2,,0.00,0,,162
2013-2-6,48,34,21,28,24,19,92,69,36,30.02,29.94,29.86,10,10,10,12,2,,0.00,2,,283
2013-2-7,48,34,21,26,18,10,92,60,21,30.17,30.06,29.99,10,10,10,9,1,,0.00,0,,217
2013-2-8,51,36,21,25,16,3,89,53,14,29.97,29.79,29.62,10,10,10,25,7,41,0.00,0,,206
2013-2-9,32,26,21,25,19,12,93,76,55,29.86,29.70,29.56,10,5,0,29,12,39,0.05,7,Fog-Snow,231
2013-2-10,30,24,19,21,18,15,93,80,54,29.93,29.87,29.83,10,6,1,17,8,26,0.04,8,Snow,217
2013-2-11,28,22,15,20,16,11,93,78,56,30.06,29.97,29.92,10,10,5,10,4,,0.00,7,Snow,255
2013-2-12,34,23,12,14,9,6,84,61,31,30.23,30.16,30.08,10,10,9,12,6,,0.00,0,,357
2013-2-13,43,26,10,16,12,5,85,59,31,30.25,30.18,30.09,10,10,10,15,4,22,0.00,0,,344
2013-2-14,43,29,15,18,15,10,88,62,34,30.25,30.17,30.11,10,10,10,17,3,22,0.00,0,,348
2013-2-15,46,30,14,17,10,2,88,52,16,30.42,30.33,30.23,10,10,10,20,4,23,0.00,0,,2
2013-2-16,55,34,14,14,7,-8,84,49,7,30.47,30.31,30.15,10,10,10,9,2,,0.00,0,,339
2013-2-17,52,32,12,16,8,1,84,46,12,30.12,29.91,29.75,10,10,10,22,5,31,0.00,0,,244
2013-2-18,45,32,19,13,2,-12,65,35,10,30.08,29.99,29.81,10,10,10,12,4,,0.00,0,,322
2013-2-19,46,30,14,13,8,1,80,47,15,30.04,29.85,29.60,10,10,10,18,3,28,0.00,0,,201
2013-2-20,36,30,24,25,20,10,93,71,43,29.65,29.57,29.49,10,7,0,16,7,24,0.05,7,Fog-Snow,219
2013-2-21,33,28,24,23,21,19,86,77,59,29.90,29.80,29.62,10,8,2,16,8,26,0.01,8,Snow,241
2013-2-22,35,26,17,20,13,3,93,66,32,30.09,29.95,29.88,10,10,10,16,6,21,0.00,5,,261
2013-2-23,45,28,10,21,13,5,84,58,26,30.10,29.89,29.70,10,9,3,20,5,29,0.00,2,Snow,251
2013-2-24,27,22,18,17,7,-1,86,54,30,29.93,29.79,29.71,10,9,2,20,11,29,0.00,5,Snow,345
2013-2-25,44,30,17,10,6,-4,68,37,14,30.14,30.00,29.93,10,10,10,16,8,23,0.00,0,,312
2013-2-26,35,24,14,8,0,-14,74,38,13,30.14,29.97,29.85,10,10,10,21,7,29,0.00,1,,330
2013-2-27,39,24,8,7,1,-6,73,42,16,30.30,30.24,30.14,10,10,10,9,3,,0.00,0,,3
2013-2-28,48,28,9,5,-1,-9,77,38,9,30.41,30.34,30.27,10,10,10,15,3,22,0.00,0,,346